Time;durP1;ratioP1;P1;durP2;ratioP2;P2;SDS_P1;SDS_P2;PMS_P1;PMS_P2;Temp;Humidity;BMP_temperature;BMP_pressure;BME280_temperature;BME280_humidity;BME280_pressure;Samples;Min_cycle;Max_cycle;Signal;HPM_P1;HPM_P2
2022/07/19 00:01:44;;;;;;;6.75;4.70;;;;;;;30.22;35.35;98763.56;5074024;28;20426;-49
2022/07/19 00:04:10;;;;;;;8.27;4.82;;;;;;;30.25;35.21;98767.50;5074058;28;20361;-49
2022/07/19 00:06:35;;;;;;;12.75;5.30;;;;;;;30.22;35.02;98768.16;5073871;28;20505;-50
2022/07/19 00:09:03;;;;;;;14.10;5.45;;;;;;;30.21;34.69;98767.38;5073874;28;20020;-50
2022/07/19 00:11:29;;;;;;;9.95;4.80;;;;;;;30.34;34.56;98768.25;5073669;28;20502;-49
2022/07/19 00:13:54;;;;;;;20.70;8.02;;;;;;;30.37;34.32;98764.91;5055860;28;20035;-49
2022/07/19 00:16:20;;;;;;;9.50;4.60;;;;;;;30.44;33.95;98772.50;5055692;28;20029;-50
2022/07/19 00:18:46;;;;;;;8.57;5.00;;;;;;;30.41;33.22;98768.53;5051270;28;20064;-50
2022/07/19 00:21:11;;;;;;;13.80;6.03;;;;;;;30.40;33.63;98766.94;5053695;28;20082;-50
2022/07/19 00:23:37;;;;;;;7.72;4.28;;;;;;;30.43;33.54;98768.22;5053574;28;20021;-50
2022/07/19 00:26:03;;;;;;;14.23;7.22;;;;;;;30.43;33.35;98769.00;5053411;28;20021;-50
2022/07/19 00:28:29;;;;;;;7.18;4.50;;;;;;;30.43;33.05;98768.22;5053560;28;20049;-50
2022/07/19 00:30:55;;;;;;;9.07;5.30;;;;;;;30.48;32.91;98764.50;5053455;28;20122;-50
2022/07/19 00:33:21;;;;;;;5.20;4.07;;;;;;;30.44;32.46;98762.44;5053457;28;20238;-48
2022/07/19 00:35:46;;;;;;;11.20;5.47;;;;;;;30.41;33.12;98760.41;5053413;28;20487;-49
2022/07/19 00:38:14;;;;;;;5.75;4.15;;;;;;;30.41;32.28;98765.03;5053339;28;20379;-49
2022/07/19 00:40:41;;;;;;;8.27;3.85;;;;;;;30.36;31.89;98765.22;5035336;28;20028;-49
2022/07/19 00:43:11;;;;;;;10.18;3.83;;;;;;;30.31;31.85;98763.50;5053236;28;20025;-50
2022/07/19 00:45:37;;;;;;;4.72;3.70;;;;;;;30.22;31.95;98751.91;5053170;28;20060;-49
2022/07/19 00:48:04;;;;;;;11.95;4.43;;;;;;;30.18;32.12;98761.81;5053079;28;20036;-49
2022/07/19 00:50:30;;;;;;;11.23;4.63;;;;;;;30.16;32.17;98767.56;5035225;28;20053;-49
2022/07/19 00:53:02;;;;;;;7.75;4.32;;;;;;;30.15;32.48;98765.19;5053103;28;20059;-48
2022/07/19 00:55:33;;;;;;;4.80;4.15;;;;;;;30.15;31.88;98762.50;5052968;28;20083;-49
2022/07/19 00:58:01;;;;;;;8.93;4.25;;;;;;;30.19;31.71;98758.00;5035051;28;20051;-48
2022/07/19 01:00:30;;;;;;;9.80;4.93;;;;;;;30.24;32.07;98764.03;5052878;28;20049;-48
2022/07/19 01:02:56;;;;;;;11.98;4.20;;;;;;;30.30;31.74;98763.81;5052876;28;20099;-48
2022/07/19 01:05:22;;;;;;;6.07;3.75;;;;;;;30.22;31.69;98758.13;5053032;28;20140;-49
2022/07/19 01:07:48;;;;;;;8.48;4.00;;;;;;;30.15;31.99;98760.56;5034998;28;20535;-49
2022/07/19 01:10:15;;;;;;;12.95;4.15;;;;;;;30.11;32.13;98761.56;5034764;28;20109;-50
2022/07/19 01:12:42;;;;;;;5.88;3.58;;;;;;;30.18;31.69;98762.59;5052694;28;20506;-49
2022/07/19 01:15:23;;;;;;;11.35;5.00;;;;;;;30.22;32.28;98765.44;5034729;28;20494;-50
2022/07/19 01:17:49;;;;;;;6.13;3.42;;;;;;;30.24;31.83;98757.78;5034652;28;20033;-50
2022/07/19 01:20:16;;;;;;;17.75;6.47;;;;;;;30.23;33.33;98764.34;5068778;28;20049;-50
2022/07/19 01:22:43;;;;;;;7.78;3.95;;;;;;;30.30;32.29;98761.91;5054001;28;20024;-50
2022/07/19 01:25:10;;;;;;;19.58;5.38;;;;;;;30.15;32.38;98768.69;5072405;28;20078;-49
2022/07/19 01:27:45;;;;;;;8.73;4.15;;;;;;;30.06;32.44;98757.09;5054373;28;20103;-49
2022/07/19 01:30:13;;;;;;;6.80;3.67;;;;;;;29.92;32.93;98767.38;5072299;28;20521;-49
2022/07/19 01:32:39;;;;;;;12.45;4.57;;;;;;;29.88;32.89;98761.81;5054400;28;20397;-49
2022/07/19 01:35:07;;;;;;;7.70;4.40;;;;;;;29.74;33.35;98763.97;5054336;28;20442;-50
2022/07/19 01:37:34;;;;;;;4.82;4.07;;;;;;;29.65;33.14;98766.69;5072240;28;20024;-50
2022/07/19 01:39:59;;;;;;;7.50;4.20;;;;;;;29.53;33.61;98767.38;5072194;28;20070;-49
2022/07/19 01:42:25;;;;;;;10.98;5.32;;;;;;;29.44;35.23;98770.13;5054172;28;20028;-49
2022/07/19 01:44:51;;;;;;;11.73;5.97;;;;;;;29.52;35.13;98773.91;5054125;28;20067;-49
2022/07/19 01:47:17;;;;;;;10.77;4.88;;;;;;;29.70;35.07;98768.41;5054060;28;20497;-50
2022/07/19 01:49:42;;;;;;;10.90;4.22;;;;;;;29.92;34.11;98762.75;5072068;28;20835;-48
2022/07/19 01:52:08;;;;;;;10.20;5.15;;;;;;;30.03;34.04;98761.28;5072004;28;20370;-49
2022/07/19 01:54:33;;;;;;;14.88;5.22;;;;;;;30.11;33.77;98761.56;5054034;28;20024;-50
2022/07/19 01:56:59;;;;;;;10.18;5.10;;;;;;;30.16;33.84;98762.13;5071891;28;20489;-49
2022/07/19 01:59:25;;;;;;;12.90;5.22;;;;;;;30.19;33.59;98760.72;5071920;28;20036;-49
2022/07/19 02:01:50;;;;;;;16.20;5.68;;;;;;;30.12;34.45;98750.38;5053871;28;20028;-49
2022/07/19 02:04:16;;;;;;;10.85;4.32;;;;;;;30.14;34.22;98760.88;5071879;28;20611;-50
2022/07/19 02:06:42;;;;;;;19.63;5.10;;;;;;;30.12;34.21;98752.31;5053703;28;20020;-49
2022/07/19 02:09:07;;;;;;;9.68;5.22;;;;;;;30.16;34.19;98748.59;5053853;28;20028;-50
2022/07/19 02:11:36;;;;;;;8.13;4.63;;;;;;;30.24;33.82;98757.78;5053752;28;20410;-50
2022/07/19 02:14:07;;;;;;;11.38;5.25;;;;;;;30.27;34.12;98751.72;5053725;28;20516;-49
2022/07/19 02:16:35;;;;;;;11.40;5.30;;;;;;;30.31;34.14;98746.50;5053719;28;20112;-49
2022/07/19 02:19:01;;;;;;;12.70;6.25;;;;;;;30.34;34.49;98745.81;5047304;28;20037;-50
2022/07/19 02:21:27;;;;;;;9.07;4.43;;;;;;;30.34;33.91;98749.31;5033731;28;20509;-49
2022/07/19 02:23:52;;;;;;;16.08;5.55;;;;;;;30.30;33.74;98750.28;5033664;28;20025;-49
2022/07/19 02:26:18;;;;;;;9.95;4.90;;;;;;;30.27;33.99;98749.03;5033575;28;20021;-49
2022/07/19 02:28:45;;;;;;;5.95;4.38;;;;;;;30.21;34.05;98745.72;5033668;28;20553;-50
2022/07/19 02:31:10;;;;;;;9.35;4.30;;;;;;;30.12;34.00;98741.47;5033769;28;20052;-49
2022/07/19 02:33:36;;;;;;;5.75;4.35;;;;;;;30.05;34.26;98742.78;5052194;28;20056;-50
2022/07/19 02:36:03;;;;;;;7.30;4.25;;;;;;;30.01;34.13;98743.78;5037761;28;20033;-50
2022/07/19 02:38:30;;;;;;;8.20;5.18;;;;;;;29.87;34.79;98744.03;5055662;28;20043;-50
2022/07/19 02:40:56;;;;;;;9.93;6.68;;;;;;;29.89;35.71;98749.09;5055495;28;20099;-49
2022/07/19 02:43:21;;;;;;;11.30;6.88;;;;;;;29.97;35.45;98743.63;5055514;28;20621;-50
2022/07/19 02:45:47;;;;;;;9.43;5.85;;;;;;;30.02;35.34;98740.75;5037426;28;20024;-50
2022/07/19 02:48:13;;;;;;;9.52;5.50;;;;;;;30.07;34.94;98740.53;5037452;28;20119;-50
2022/07/19 02:50:39;;;;;;;10.77;5.50;;;;;;;30.10;34.47;98741.00;5037416;28;20031;-50
2022/07/19 02:53:04;;;;;;;16.48;9.75;;;;;;;30.04;34.77;98745.81;5055269;28;20036;-50
2022/07/19 02:55:31;;;;;;;12.18;6.75;;;;;;;30.03;35.12;98742.31;5055268;28;20017;-50
2022/07/19 02:57:56;;;;;;;9.93;5.47;;;;;;;29.94;34.56;98757.84;5055214;28;20032;-49
2022/07/19 03:00:22;;;;;;;10.18;5.75;;;;;;;29.79;34.56;98745.66;5055158;28;20021;-50
2022/07/19 03:02:48;;;;;;;10.20;4.88;;;;;;;29.74;34.82;98751.25;5037224;28;20025;-49
2022/07/19 03:05:13;;;;;;;12.95;5.53;;;;;;;29.74;34.92;98755.84;5055093;28;20056;-48
2022/07/19 03:07:39;;;;;;;8.60;4.97;;;;;;;29.72;34.86;98755.38;5036826;28;20036;-47
2022/07/19 03:10:05;;;;;;;16.35;6.32;;;;;;;29.79;35.29;98750.28;5036986;28;20108;-48
2022/07/19 03:12:31;;;;;;;15.13;9.60;;;;;;;29.94;35.09;98759.72;5037065;28;20033;-48
2022/07/19 03:14:57;;;;;;;6.47;5.20;;;;;;;29.98;35.17;98752.53;5020599;28;20036;-49
2022/07/19 03:17:23;;;;;;;8.82;4.50;;;;;;;29.98;34.41;98753.34;5054786;28;20112;-48
2022/07/19 03:19:49;;;;;;;10.52;7.25;;;;;;;29.94;35.10;98754.31;5067433;28;20146;-48
2022/07/19 03:22:15;;;;;;;14.18;7.28;;;;;;;30.03;35.32;98749.66;5056743;28;20037;-48
2022/07/19 03:24:41;;;;;;;19.05;6.75;;;;;;;30.03;34.92;98753.16;5056709;28;20129;-48
2022/07/19 03:27:07;;;;;;;14.65;6.15;;;;;;;29.98;34.76;98749.84;5074648;28;20071;-48
2022/07/19 03:29:32;;;;;;;17.73;8.35;;;;;;;29.90;34.98;98756.88;5056661;28;20032;-48
2022/07/19 03:31:58;;;;;;;13.57;5.13;;;;;;;29.88;35.04;98764.53;5074502;28;20070;-48
2022/07/19 03:34:26;;;;;;;21.10;6.35;;;;;;;29.86;35.06;98762.16;5074638;28;20029;-48
2022/07/19 03:36:51;;;;;;;12.57;6.63;;;;;;;29.84;35.22;98759.00;5074495;28;20031;-48
2022/07/19 03:39:17;;;;;;;19.25;7.05;;;;;;;29.86;35.41;98766.78;5074468;28;20028;-48
2022/07/19 03:41:42;;;;;;;22.00;6.53;;;;;;;29.86;35.08;98767.59;5074407;28;20028;-48
2022/07/19 03:44:08;;;;;;;14.75;6.20;;;;;;;29.95;35.53;98764.81;5073824;28;20020;-48
2022/07/19 03:46:34;;;;;;;14.35;9.13;;;;;;;30.17;35.43;98768.38;5056238;28;20031;-49
2022/07/19 03:49:03;;;;;;;12.60;8.18;;;;;;;30.20;35.54;98759.56;5056269;28;20024;-48
2022/07/19 03:51:28;;;;;;;10.57;6.20;;;;;;;30.19;35.10;98766.13;5056298;28;20040;-48
2022/07/19 03:53:54;;;;;;;12.40;6.43;;;;;;;30.06;35.24;98759.81;5074115;28;20482;-48
2022/07/19 03:56:20;;;;;;;13.25;5.85;;;;;;;29.94;35.14;98763.25;5056092;28;20116;-48
2022/07/19 03:58:50;;;;;;;22.05;6.95;;;;;;;29.91;35.82;98773.94;5074111;28;20489;-48
2022/07/19 04:01:16;;;;;;;11.68;6.38;;;;;;;29.92;35.68;98765.47;5074079;28;20039;-47
2022/07/19 04:03:42;;;;;;;12.00;4.80;;;;;;;29.82;35.26;98772.06;5074044;28;20025;-48
2022/07/19 04:06:11;;;;;;;13.43;7.35;;;;;;;29.70;36.03;98763.81;5074397;28;20385;-48
2022/07/19 04:08:37;;;;;;;9.23;5.32;;;;;;;29.75;35.99;98768.28;5073898;28;20016;-48
2022/07/19 04:11:04;;;;;;;12.48;6.97;;;;;;;29.82;36.29;98779.38;5073913;28;20013;-50
2022/07/19 04:13:32;;;;;;;15.70;6.63;;;;;;;29.81;35.87;98772.38;5055959;28;20482;-49
2022/07/19 04:15:58;;;;;;;10.57;6.35;;;;;;;29.69;35.96;98773.03;5055780;28;20114;-50
2022/07/19 04:18:23;;;;;;;16.63;7.53;;;;;;;29.75;36.30;98779.09;5055430;28;20116;-50
2022/07/19 04:20:49;;;;;;;34.10;7.75;;;;;;;29.83;36.01;98778.25;5073585;28;20044;-49
2022/07/19 04:23:15;;;;;;;23.42;7.07;;;;;;;29.78;35.76;98770.31;5055608;28;20058;-49
2022/07/19 04:25:40;;;;;;;24.42;7.82;;;;;;;29.86;36.00;98772.19;5055541;28;20025;-49
2022/07/19 04:28:07;;;;;;;18.50;8.05;;;;;;;30.05;35.96;98780.69;5073472;28;20024;-50
2022/07/19 04:30:33;;;;;;;25.52;6.70;;;;;;;30.24;35.37;98782.97;5073477;28;20013;-50
2022/07/19 04:32:58;;;;;;;20.50;9.88;;;;;;;30.27;35.46;98787.72;5073404;28;20020;-50
2022/07/19 04:35:27;;;;;;;25.75;9.55;;;;;;;30.34;35.93;98781.00;5055400;28;20029;-49
2022/07/19 04:37:53;;;;;;;12.82;6.72;;;;;;;30.43;35.10;98790.66;5073370;28;20028;-50
2022/07/19 04:40:19;;;;;;;10.40;5.65;;;;;;;30.46;35.39;98790.03;5073305;28;20482;-49
2022/07/19 04:42:44;;;;;;;18.15;8.93;;;;;;;30.70;35.18;98793.97;5055251;28;20044;-49
2022/07/19 04:45:10;;;;;;;15.48;6.38;;;;;;;31.16;34.28;98792.13;5055253;28;20017;-50
2022/07/19 04:47:36;;;;;;;22.95;8.27;;;;;;;31.60;33.85;98789.75;5073064;28;20405;-48
2022/07/19 04:50:01;;;;;;;29.55;7.25;;;;;;;31.95;33.13;98793.94;5055078;28;20112;-48
2022/07/19 04:52:27;;;;;;;22.40;7.00;;;;;;;32.22;32.33;98795.22;5073064;28;20111;-48
2022/07/19 04:54:53;;;;;;;24.08;6.45;;;;;;;32.34;32.17;98794.41;5055001;28;20521;-48
2022/07/19 04:57:19;;;;;;;19.52;6.32;;;;;;;32.40;31.88;98795.75;5072278;28;20452;-48
2022/07/19 04:59:44;;;;;;;21.90;8.27;;;;;;;32.38;32.55;98798.03;5072918;28;20390;-49
2022/07/19 05:02:10;;;;;;;14.02;6.32;;;;;;;32.38;32.49;98792.59;5054864;28;20073;-48
2022/07/19 05:04:35;;;;;;;9.27;6.38;;;;;;;32.45;32.31;98796.28;5054822;28;20033;-48
2022/07/19 05:07:01;;;;;;;13.02;8.15;;;;;;;32.57;32.15;98798.22;5054698;28;20060;-48
2022/07/19 05:09:28;;;;;;;10.73;6.32;;;;;;;32.77;31.54;98799.16;5072725;28;20455;-50
2022/07/19 05:11:55;;;;;;;10.95;7.25;;;;;;;33.19;30.85;98796.06;5072960;28;20033;-50
2022/07/19 05:14:21;;;;;;;20.73;7.07;;;;;;;33.53;30.26;98799.25;5072659;28;20027;-50
2022/07/19 05:16:49;;;;;;;11.20;8.20;;;;;;;33.88;30.24;98809.44;5054619;28;20036;-49
2022/07/19 05:19:16;;;;;;;16.05;8.75;;;;;;;34.08;29.41;98807.56;5072354;28;20068;-50
2022/07/19 05:21:43;;;;;;;21.38;6.95;;;;;;;33.98;29.35;98819.00;5072496;28;20023;-49
2022/07/19 05:24:08;;;;;;;9.10;6.57;;;;;;;33.95;28.89;98806.91;5054546;28;20078;-50
2022/07/19 05:26:35;;;;;;;11.30;6.55;;;;;;;33.89;29.33;98813.75;5072330;28;20025;-48
2022/07/19 05:29:01;;;;;;;12.82;7.10;;;;;;;33.96;29.03;98819.34;5072327;28;20035;-48
2022/07/19 05:31:27;;;;;;;19.00;9.93;;;;;;;34.28;29.62;98807.66;5054341;28;20032;-48
2022/07/19 05:33:53;;;;;;;9.20;6.70;;;;;;;34.79;28.58;98808.38;5072304;28;20028;-48
2022/07/19 05:36:18;;;;;;;9.00;6.40;;;;;;;35.26;27.52;98800.31;5054307;28;20544;-47
2022/07/19 05:38:44;;;;;;;10.13;6.50;;;;;;;35.55;27.40;98801.56;5054212;28;20111;-50
2022/07/19 05:41:10;;;;;;;20.02;12.90;;;;;;;36.16;26.72;98800.63;5072157;28;20026;-50
2022/07/19 05:43:38;;;;;;;14.32;9.55;;;;;;;36.93;26.40;98800.41;5072060;28;20020;-50
2022/07/19 05:46:04;;;;;;;9.77;6.38;;;;;;;37.72;25.03;98803.94;5072029;28;20021;-48
2022/07/19 05:48:30;;;;;;;13.00;8.73;;;;;;;38.10;25.01;98799.13;5054166;28;20490;-49
2022/07/19 05:50:57;;;;;;;22.40;8.32;;;;;;;38.50;23.80;98800.91;5072002;28;20020;-50
2022/07/19 05:53:23;;;;;;;8.15;5.50;;;;;;;38.80;23.31;98801.78;5072053;28;20027;-50
2022/07/19 05:55:49;;;;;;;15.05;8.07;;;;;;;39.01;23.36;98798.38;5071991;28;20024;-49
2022/07/19 05:58:17;;;;;;;9.80;6.00;;;;;;;39.24;22.61;98803.50;5071931;28;20516;-49
2022/07/19 06:01:17;;;;;;;16.80;6.65;;;;;;;39.46;22.55;98796.88;5071882;28;20035;-49
2022/07/19 06:03:29;;;;;;;21.58;6.10;;;;;;;39.99;21.65;98797.25;5071626;28;20038;-49
2022/07/19 06:05:55;;;;;;;21.13;6.97;;;;;;;40.40;21.28;98794.00;5071782;28;20096;-49
2022/07/19 06:08:21;;;;;;;17.30;6.50;;;;;;;40.80;20.91;98787.16;5071637;28;20107;-49
2022/07/19 06:10:46;;;;;;;23.95;7.32;;;;;;;41.22;20.45;98792.84;5071780;28;20024;-49
2022/07/19 06:13:12;;;;;;;9.90;6.07;;;;;;;41.30;20.05;98797.88;5071868;28;20112;-48
2022/07/19 06:15:38;;;;;;;14.00;5.85;;;;;;;41.30;20.20;98792.38;5053762;28;20090;-49
2022/07/19 06:18:04;;;;;;;13.85;7.13;;;;;;;41.32;20.50;98803.75;5071854;28;20063;-50
2022/07/19 06:20:30;;;;;;;11.70;6.50;;;;;;;40.77;20.54;98800.94;5071596;28;20048;-49
2022/07/19 06:22:55;;;;;;;11.35;5.25;;;;;;;40.27;21.39;98797.16;5053639;28;20524;-50
2022/07/19 06:25:21;;;;;;;14.20;6.00;;;;;;;40.76;21.20;98794.66;5071949;28;20032;-50
2022/07/19 06:27:47;;;;;;;16.17;6.32;;;;;;;41.65;20.31;98789.75;5071545;28;20024;-50
2022/07/19 06:30:12;;;;;;;15.15;5.78;;;;;;;42.74;19.42;98787.38;5071599;28;20028;-50
2022/07/19 06:32:38;;;;;;;21.45;6.38;;;;;;;43.35;18.69;98792.06;5053553;28;20013;-50
2022/07/19 06:35:04;;;;;;;39.53;7.50;;;;;;;43.52;19.24;98790.19;5071515;28;20056;-50
2022/07/19 06:37:29;;;;;;;11.20;4.50;;;;;;;43.59;17.97;98801.09;5071558;28;20049;-49
2022/07/19 06:39:55;;;;;;;19.08;4.63;;;;;;;43.41;18.09;98793.13;5053475;28;20086;-50
2022/07/19 06:42:21;;;;;;;12.20;4.75;;;;;;;43.34;17.75;98787.72;5053457;28;20059;-50
2022/07/19 06:44:47;;;;;;;10.00;4.00;;;;;;;43.48;18.07;98791.00;5071403;28;20078;-50
2022/07/19 06:47:16;;;;;;;8.65;3.70;;;;;;;43.58;17.73;98794.03;5071367;28;20021;-48
2022/07/19 06:49:42;;;;;;;12.65;4.25;;;;;;;43.80;17.68;98783.41;5053415;28;20060;-50
2022/07/19 06:52:07;;;;;;;9.70;3.80;;;;;;;44.12;16.96;98790.34;5071383;28;20036;-50
2022/07/19 06:54:33;;;;;;;5.85;3.65;;;;;;;43.97;16.84;98795.31;5071372;28;20490;-49
2022/07/19 06:56:59;;;;;;;9.80;3.83;;;;;;;43.81;16.98;98796.00;5053375;28;20016;-49
2022/07/19 06:59:24;;;;;;;12.15;4.13;;;;;;;43.85;16.80;98797.53;5071357;28;20397;-48
2022/07/19 07:01:50;;;;;;;11.68;4.22;;;;;;;43.80;17.52;98795.22;5053258;28;20021;-49
2022/07/19 07:04:16;;;;;;;10.70;4.10;;;;;;;43.96;16.94;98802.84;5071301;28;20039;-48
2022/07/19 07:06:42;;;;;;;9.60;3.58;;;;;;;43.93;16.87;98791.84;5053098;28;20017;-48
2022/07/19 07:09:07;;;;;;;8.15;4.22;;;;;;;43.75;17.24;98797.69;5071293;28;20028;-47
2022/07/19 07:11:33;;;;;;;5.15;3.63;;;;;;;43.87;17.02;98797.88;5071474;28;20112;-48
2022/07/19 07:13:59;;;;;;;7.30;4.05;;;;;;;44.15;16.56;98797.78;5053175;28;20493;-47
2022/07/19 07:16:27;;;;;;;6.75;3.90;;;;;;;44.18;17.14;98796.94;5053109;28;20028;-49
2022/07/19 07:18:53;;;;;;;10.85;3.63;;;;;;;44.35;17.06;98800.53;5054616;28;20421;-49
2022/07/19 07:21:19;;;;;;;5.95;3.65;;;;;;;44.35;16.93;98800.53;5074349;28;20020;-50
2022/07/19 07:23:44;;;;;;;13.57;4.45;;;;;;;44.15;16.66;98806.88;5073374;28;20501;-50
2022/07/19 07:26:11;;;;;;;13.27;4.80;;;;;;;43.90;17.23;98799.00;5073616;28;20442;-50
2022/07/19 07:28:37;;;;;;;8.48;4.20;;;;;;;43.61;17.34;98796.72;5074587;28;20016;-50
2022/07/19 07:31:03;;;;;;;66.45;43.58;;;;;;;43.61;17.29;98793.19;5074603;28;20051;-49
2022/07/19 07:33:29;;;;;;;34.58;12.50;;;;;;;43.41;17.58;98801.44;5074489;28;20052;-49
2022/07/19 07:35:55;;;;;;;28.35;7.65;;;;;;;42.98;18.29;98791.78;5073229;28;20540;-48
2022/07/19 07:38:20;;;;;;;19.30;7.00;;;;;;;42.70;18.56;98781.91;5074467;28;20138;-48
2022/07/19 07:40:46;;;;;;;13.65;5.55;;;;;;;42.62;18.59;98786.75;5073156;28;20025;-49
2022/07/19 07:43:12;;;;;;;7.75;4.68;;;;;;;42.51;18.81;98783.34;5073114;28;20040;-48
2022/07/19 07:45:38;;;;;;;13.63;5.97;;;;;;;42.54;19.41;98782.50;5074375;28;20157;-49
2022/07/19 07:48:04;;;;;;;20.67;6.25;;;;;;;42.74;19.36;98787.38;5074298;28;20503;-49
2022/07/19 07:50:30;;;;;;;22.38;5.65;;;;;;;43.50;18.29;98776.78;5074275;28;20021;-49
2022/07/19 07:52:55;;;;;;;17.08;5.45;;;;;;;43.92;17.85;98779.22;5074279;28;20025;-49
2022/07/19 07:55:21;;;;;;;16.85;5.13;;;;;;;43.71;18.80;98785.91;5072874;28;20097;-49
2022/07/19 07:57:47;;;;;;;10.07;4.38;;;;;;;44.02;18.11;98778.25;5074180;28;20032;-49
2022/07/19 08:00:13;;;;;;;9.07;5.03;;;;;;;44.58;17.29;98775.56;5074134;28;20474;-49
2022/07/19 08:02:44;;;;;;;10.52;4.65;;;;;;;45.06;17.05;98765.00;5074299;28;20051;-50
2022/07/19 08:05:11;;;;;;;12.80;5.35;;;;;;;45.37;17.07;98759.91;5074064;28;20028;-48
2022/07/19 08:07:37;;;;;;;9.00;4.30;;;;;;;45.53;16.47;98766.63;5073908;28;20055;-47
2022/07/19 08:10:08;;;;;;;12.05;5.03;;;;;;;45.77;16.53;98764.44;5074079;28;20025;-49
2022/07/19 08:12:34;;;;;;;7.95;4.40;;;;;;;46.03;16.23;98749.47;5072470;28;20020;-48
2022/07/19 08:15:03;;;;;;;6.25;4.22;;;;;;;46.38;16.01;98755.19;5073890;28;20509;-49
2022/07/19 08:17:28;;;;;;;13.35;5.40;;;;;;;46.87;15.75;98753.34;5073762;28;20124;-49
2022/07/19 08:19:54;;;;;;;9.20;4.40;;;;;;;47.22;15.40;98748.66;5073523;28;20119;-47
2022/07/19 08:22:20;;;;;;;8.93;4.60;;;;;;;47.41;15.03;98755.97;5073689;28;20508;-47
2022/07/19 08:24:46;;;;;;;14.50;4.13;;;;;;;47.25;15.18;98756.09;5073589;28;20405;-48
2022/07/19 08:27:11;;;;;;;11.13;4.38;;;;;;;47.01;15.20;98750.91;5055502;28;20035;-48
2022/07/19 08:29:37;;;;;;;10.82;4.28;;;;;;;46.88;15.32;98757.72;5073539;28;20024;-51
2022/07/19 08:32:03;;;;;;;13.40;4.35;;;;;;;46.73;15.96;98741.47;5073680;28;20028;-50
2022/07/19 08:34:29;;;;;;;16.33;4.93;;;;;;;46.94;15.76;98744.81;5073518;28;20078;-49
2022/07/19 08:36:54;;;;;;;10.70;4.18;;;;;;;47.16;15.46;98753.22;5073373;28;20486;-49
2022/07/19 08:39:20;;;;;;;15.30;4.90;;;;;;;47.33;15.15;98753.84;5073406;28;20017;-49
2022/07/19 08:41:46;;;;;;;12.32;4.35;;;;;;;47.17;15.29;98749.22;5073275;28;20059;-50
2022/07/19 08:44:12;;;;;;;14.98;5.25;;;;;;;47.10;15.69;98750.22;5073270;28;20025;-49
2022/07/19 08:46:41;;;;;;;25.98;5.97;;;;;;;46.98;15.93;98743.47;5073155;28;20031;-49
2022/07/19 08:49:10;;;;;;;23.65;5.43;;;;;;;46.78;15.58;98737.34;5073094;28;20095;-49
2022/07/19 08:51:36;;;;;;;13.73;6.60;;;;;;;46.49;16.19;98743.81;5073070;28;20395;-49
2022/07/19 08:54:02;;;;;;;21.08;5.45;;;;;;;46.38;16.06;98746.09;5055090;28;20012;-49
2022/07/19 08:59:13;;;;;;;11.57;5.03;;;;;;;45.80;16.69;98742.16;5073332;28;20034;-49
2022/07/19 09:01:39;;;;;;;15.52;5.22;;;;;;;46.00;16.70;98738.44;5054954;28;20115;-49
2022/07/19 09:04:14;;;;;;;14.55;5.03;;;;;;;46.12;16.60;98742.50;5054895;28;20086;-50
2022/07/19 09:06:48;;;;;;;12.82;5.40;;;;;;;45.96;16.68;98741.34;5073020;28;20056;-50
2022/07/19 09:09:17;;;;;;;13.27;5.50;;;;;;;46.10;17.50;98740.16;5072858;28;20031;-49
2022/07/19 09:11:50;;;;;;;11.68;5.10;;;;;;;45.95;16.34;98737.00;5072702;28;20046;-48
2022/07/19 09:14:38;;;;;;;12.38;4.63;;;;;;;46.19;16.41;98725.66;5072724;28;20033;-50
2022/07/19 09:17:16;;;;;;;15.10;4.82;;;;;;;46.67;16.10;98731.34;5054727;28;20119;-50
2022/07/19 09:19:44;;;;;;;14.07;5.47;;;;;;;47.37;15.51;98735.06;5072395;28;20036;-50
2022/07/19 09:22:13;;;;;;;15.90;5.82;;;;;;;47.60;14.84;98743.00;5072498;28;20474;-50
2022/07/19 09:24:44;;;;;;;11.35;6.45;;;;;;;47.43;15.34;98727.69;5054585;28;20099;-49
2022/07/19 09:27:13;;;;;;;18.10;5.70;;;;;;;47.45;15.25;98730.78;5072332;28;20109;-50
2022/07/19 09:29:42;;;;;;;15.82;5.00;;;;;;;47.65;14.78;98719.41;5072326;28;20482;-52
2022/07/19 09:32:14;;;;;;;5.68;3.67;;;;;;;47.34;14.79;98731.19;5072214;28;20055;-51
2022/07/19 09:35:01;;;;;;;15.13;4.40;;;;;;;47.23;15.13;98719.63;5072285;28;20032;-52
2022/07/19 09:37:32;;;;;;;5.25;3.88;;;;;;;47.21;15.04;98719.31;5054639;28;20058;-52
2022/07/19 09:39:59;;;;;;;11.07;4.50;;;;;;;47.27;15.28;98717.53;5072284;28;20032;-52
2022/07/19 09:42:41;;;;;;;6.78;3.53;;;;;;;47.35;14.62;98707.72;5053747;28;20061;-53
2022/07/19 09:45:09;;;;;;;8.95;3.92;;;;;;;47.59;14.48;98716.44;5072030;28;20025;-50
2022/07/19 09:47:38;;;;;;;32.80;4.93;;;;;;;47.60;14.18;98706.09;5053985;28;20498;-51
2022/07/19 09:50:08;;;;;;;17.17;4.88;;;;;;;46.86;15.23;98699.81;5072018;28;20020;-52
2022/07/19 09:52:36;;;;;;;11.90;4.97;;;;;;;47.03;14.92;98700.47;5054126;28;20036;-51
2022/07/19 09:55:07;;;;;;;11.45;5.55;;;;;;;46.75;15.14;98699.38;5071953;28;20036;-51
2022/07/19 09:57:36;;;;;;;13.45;4.22;;;;;;;46.42;15.23;98694.03;5071988;28;20020;-52
2022/07/19 10:00:04;;;;;;;12.52;4.72;;;;;;;46.01;15.68;98703.94;5053905;28;20031;-52
2022/07/19 10:02:34;;;;;;;9.25;6.40;;;;;;;45.88;15.75;98683.69;5071866;28;20029;-51
2022/07/19 10:05:02;;;;;;;64.30;8.57;;;;;;;45.71;16.06;98685.78;5072123;28;20436;-51
2022/07/19 10:07:28;;;;;;;8.43;4.20;;;;;;;44.92;16.16;98694.09;5071771;28;20394;-52
2022/07/19 10:09:55;;;;;;;13.95;4.97;;;;;;;44.85;16.56;98678.41;5071858;28;20031;-51
2022/07/19 10:12:21;;;;;;;10.38;4.53;;;;;;;45.08;16.46;98675.91;5071817;28;20020;-51
2022/07/19 10:14:48;;;;;;;9.35;4.28;;;;;;;45.60;16.45;98677.72;5071997;28;20017;-52
2022/07/19 10:17:16;;;;;;;11.75;5.55;;;;;;;45.81;15.80;98679.16;5053760;28;20060;-53
2022/07/19 10:19:46;;;;;;;22.73;8.63;;;;;;;45.87;16.30;98680.16;5071473;28;20090;-53
2022/07/19 10:22:17;;;;;;;24.00;4.60;;;;;;;46.01;15.60;98660.31;5071637;28;20040;-52
2022/07/19 10:24:48;;;;;;;13.35;5.10;;;;;;;45.30;16.12;98681.69;5071748;28;20450;-52
2022/07/19 10:27:16;;;;;;;8.85;5.40;;;;;;;45.13;16.57;98678.16;5053587;28;20028;-51
2022/07/19 10:29:43;;;;;;;11.27;4.72;;;;;;;44.95;16.28;98675.84;5071618;28;20025;-51
2022/07/19 10:32:11;;;;;;;10.35;5.95;;;;;;;45.24;17.05;98673.13;5071559;28;20016;-50
2022/07/19 10:34:36;;;;;;;12.95;7.07;;;;;;;45.05;17.41;98664.47;5071481;28;20028;-50
2022/07/19 10:37:03;;;;;;;8.13;4.88;;;;;;;45.03;16.60;98669.66;5071615;28;20394;-51
2022/07/19 10:39:39;;;;;;;12.30;4.40;;;;;;;45.22;16.96;98653.38;5053541;28;20074;-51
2022/07/19 10:42:06;;;;;;;9.18;6.20;;;;;;;45.65;16.61;98658.56;5071601;28;20074;-50
2022/07/19 10:44:32;;;;;;;10.60;6.63;;;;;;;45.50;16.25;98656.59;5071525;28;20039;-52
2022/07/19 10:46:58;;;;;;;7.78;5.88;;;;;;;45.43;16.69;98641.72;5071703;28;20029;-52
2022/07/19 10:49:47;;;;;;;9.77;5.20;;;;;;;46.09;15.86;98641.50;5071442;28;20509;-51
2022/07/19 10:52:28;;;;;;;19.92;6.63;;;;;;;46.22;15.81;98642.28;5054184;28;20554;-52
2022/07/19 10:55:18;;;;;;;11.85;5.63;;;;;;;45.47;16.27;98640.88;5072510;28;20017;-51
2022/07/19 10:58:06;;;;;;;10.60;6.85;;;;;;;45.38;16.72;98639.50;5075560;28;20062;-51
2022/07/19 11:00:47;;;;;;;16.05;5.30;;;;;;;45.62;16.89;98639.22;5057372;28;20559;-51
2022/07/19 11:03:25;;;;;;;7.13;3.90;;;;;;;45.53;16.29;98623.25;5057396;28;20029;-51
2022/07/19 11:06:03;;;;;;;19.55;7.00;;;;;;;45.14;17.36;98632.59;5075185;28;20078;-50
2022/07/19 11:08:33;;;;;;;4.15;3.72;;;;;;;45.20;17.11;98634.41;5075138;28;20020;-51
2022/07/19 11:11:05;;;;;;;9.95;4.32;;;;;;;45.32;17.25;98626.59;5075387;28;20021;-52
2022/07/19 11:13:31;;;;;;;10.65;5.85;;;;;;;45.45;16.68;98632.97;5057110;28;20052;-52
2022/07/19 11:15:57;;;;;;;12.95;4.85;;;;;;;45.82;16.48;98606.59;5074984;28;20028;-52
2022/07/19 11:18:23;;;;;;;11.80;4.30;;;;;;;46.00;16.02;98630.22;5074631;28;20028;-51
2022/07/19 11:20:49;;;;;;;9.65;4.43;;;;;;;45.22;17.14;98611.81;5056995;28;20067;-51
2022/07/19 11:23:20;;;;;;;9.10;4.88;;;;;;;44.80;17.37;98628.31;5056783;28;20047;-51
2022/07/19 11:25:46;;;;;;;8.82;4.32;;;;;;;44.43;17.76;98609.00;5074765;28;20047;-51
2022/07/19 11:28:25;;;;;;;12.20;4.65;;;;;;;44.60;17.51;98606.25;5074595;28;20024;-53
2022/07/19 11:30:51;;;;;;;8.95;5.22;;;;;;;44.44;17.59;98609.78;5074702;28;20050;-52